createdAt,value
2019-06-07T00:00:02.810Z,9.93
2019-06-07T00:01:02.011Z,10.05
2019-06-07T00:02:02.083Z,10.09
2019-06-07T00:03:02.014Z,10.09
2019-06-07T00:04:02.069Z,10.04
2019-06-07T00:05:02.042Z,9.97
2019-06-07T00:06:02.003Z,9.93
2019-06-07T00:07:02.120Z,9.86
2019-06-07T00:08:07.520Z,9.79
2019-06-07T00:09:02.072Z,9.72
2019-06-07T00:10:02.005Z,9.69
2019-06-07T00:11:02.005Z,9.58
2019-06-07T00:12:02.040Z,9.51
2019-06-07T00:13:02.106Z,9.49
2019-06-07T00:14:02.091Z,9.47
2019-06-07T00:15:02.062Z,9.43
2019-06-07T00:16:02.063Z,9.42
2019-06-07T00:17:01.986Z,9.39
2019-06-07T00:18:02.028Z,9.34
2019-06-07T00:19:02.088Z,9.30
2019-06-07T00:20:02.112Z,9.23
2019-06-07T00:21:02.110Z,9.22
2019-06-07T00:22:30.009Z,9.22
2019-06-07T00:23:02.054Z,9.23
2019-06-07T00:24:02.041Z,9.19
2019-06-07T00:25:02.037Z,9.15
2019-06-07T00:26:02.105Z,9.11
2019-06-07T00:27:02.125Z,9.07
2019-06-07T00:28:02.119Z,9.04
2019-06-07T00:29:02.027Z,9.01
2019-06-07T00:30:29.820Z,9.04
2019-06-07T00:31:02.105Z,9.15
2019-06-07T00:32:02.038Z,9.09
2019-06-07T00:33:02.030Z,9.05
2019-06-07T00:34:02.087Z,9.01
2019-06-07T00:35:02.085Z,8.97
2019-06-07T00:36:02.044Z,8.93
2019-06-07T00:37:02.130Z,8.87
2019-06-07T00:38:02.001Z,8.83
2019-06-07T00:39:02.086Z,8.78
2019-06-07T00:40:13.950Z,8.79
2019-06-07T00:41:02.020Z,8.85
2019-06-07T00:42:02.146Z,8.89
2019-06-07T00:43:02.035Z,8.91
2019-06-07T00:44:02.109Z,8.94
2019-06-07T00:45:02.143Z,8.94
2019-06-07T00:46:02.112Z,8.94
2019-06-07T00:47:02.044Z,8.91
2019-06-07T00:48:02.074Z,8.87
2019-06-07T00:49:02.100Z,8.82
2019-06-07T00:50:02.008Z,8.78
2019-06-07T00:51:02.118Z,8.72
2019-06-07T00:52:02.061Z,8.69
2019-06-07T00:53:27.542Z,8.65
2019-06-07T00:54:02.105Z,8.64
2019-06-07T00:55:02.134Z,8.62
2019-06-07T00:56:01.988Z,8.60
2019-06-07T00:57:02.005Z,8.57
2019-06-07T00:58:02.500Z,8.57
2019-06-07T00:59:11.372Z,8.53
2019-06-07T01:00:02.062Z,8.50
2019-06-07T01:01:02.012Z,8.47
2019-06-07T01:02:02.123Z,8.47
2019-06-07T01:03:02.048Z,8.50
2019-06-07T01:04:02.044Z,8.49
2019-06-07T01:05:02.114Z,8.49
2019-06-07T01:06:02.118Z,8.49
2019-06-07T01:07:02.049Z,8.47
2019-06-07T01:08:02.117Z,8.46
2019-06-07T01:09:02.061Z,8.43
2019-06-07T01:10:02.149Z,8.37
2019-06-07T01:11:02.052Z,8.34
2019-06-07T01:12:02.269Z,8.31
2019-06-07T01:13:02.150Z,8.31
2019-06-07T01:14:02.164Z,8.31
2019-06-07T01:15:02.161Z,8.31
2019-06-07T01:16:02.135Z,8.30
2019-06-07T01:17:22.493Z,8.28
2019-06-07T01:19:02.075Z,8.28
2019-06-07T01:20:02.072Z,8.27
2019-06-07T01:21:02.160Z,8.24
2019-06-07T01:22:02.225Z,8.22
2019-06-07T01:23:02.060Z,8.17
2019-06-07T01:24:11.979Z,8.16
2019-06-07T01:25:02.128Z,8.16
2019-06-07T01:26:02.130Z,8.22
2019-06-07T01:27:02.129Z,8.27
2019-06-07T01:28:02.068Z,8.35
2019-06-07T01:29:02.133Z,8.46
2019-06-07T01:30:02.137Z,8.57
2019-06-07T01:31:02.133Z,8.75
2019-06-07T01:32:02.139Z,8.90
2019-06-07T01:33:02.169Z,8.97
2019-06-07T01:34:02.165Z,9.01
2019-06-07T01:35:02.150Z,9.02
2019-06-07T01:36:02.107Z,9.04
2019-06-07T01:37:02.082Z,9.05
2019-06-07T01:38:02.130Z,9.07
2019-06-07T01:39:02.151Z,9.07
2019-06-07T01:40:02.091Z,9.05
2019-06-07T01:41:02.157Z,9.04
2019-06-07T01:42:02.264Z,9.04
2019-06-07T01:43:02.149Z,9.05
2019-06-07T01:44:02.191Z,9.05
2019-06-07T01:45:02.104Z,9.05
2019-06-07T01:46:02.158Z,9.04
2019-06-07T01:47:02.077Z,9.04
2019-06-07T01:48:02.147Z,9.04
2019-06-07T01:49:02.083Z,9.05
2019-06-07T01:50:02.112Z,9.05
2019-06-07T01:51:02.079Z,9.07
2019-06-07T01:52:02.092Z,9.07
2019-06-07T01:53:02.181Z,9.08
2019-06-07T01:54:48.746Z,9.09
2019-06-07T01:55:02.125Z,9.11
2019-06-07T01:56:02.171Z,9.11
2019-06-07T01:57:02.117Z,9.12
2019-06-07T01:58:02.169Z,9.16
2019-06-07T01:59:02.173Z,9.19
2019-06-07T02:00:02.177Z,9.23
2019-06-07T02:01:02.167Z,9.25
2019-06-07T02:02:02.180Z,9.27
2019-06-07T02:03:02.094Z,9.27
2019-06-07T02:04:02.556Z,9.30
2019-06-07T02:05:02.216Z,9.31
2019-06-07T02:06:02.128Z,9.38
2019-06-07T02:07:02.139Z,9.42
2019-06-07T02:08:02.200Z,9.46
2019-06-07T02:09:02.198Z,9.49
2019-06-07T02:10:02.122Z,9.53
2019-06-07T02:11:02.209Z,9.55
2019-06-07T02:12:02.189Z,9.58
2019-06-07T02:13:02.125Z,9.58
2019-06-07T02:14:02.106Z,9.60
2019-06-07T02:15:02.466Z,9.61
2019-06-07T02:16:02.189Z,9.62
2019-06-07T02:17:02.112Z,9.64
2019-06-07T02:18:02.258Z,9.64
2019-06-07T02:19:03.732Z,9.62
2019-06-07T02:20:02.177Z,9.62
2019-06-07T02:21:02.191Z,9.61
2019-06-07T02:22:02.209Z,9.60
2019-06-07T02:23:02.122Z,9.60
2019-06-07T02:24:02.186Z,9.61
2019-06-07T02:25:36.884Z,9.61
2019-06-07T02:26:02.116Z,9.61
2019-06-07T02:27:02.124Z,9.62
2019-06-07T02:28:26.449Z,9.64
2019-06-07T02:29:02.187Z,9.65
2019-06-07T02:30:35.219Z,9.65
2019-06-07T02:31:02.131Z,9.65
2019-06-07T02:32:02.218Z,9.66
2019-06-07T02:33:02.221Z,9.69
2019-06-07T02:34:02.198Z,9.68
2019-06-07T02:35:02.243Z,9.66
2019-06-07T02:36:02.140Z,9.66
2019-06-07T02:37:02.200Z,9.68
2019-06-07T02:38:02.212Z,9.68
2019-06-07T02:39:02.205Z,9.68
2019-06-07T02:40:02.142Z,9.68
2019-06-07T02:41:02.164Z,9.71
2019-06-07T02:42:02.263Z,9.72
2019-06-07T02:43:02.127Z,9.72
2019-06-07T02:44:02.213Z,9.73
2019-06-07T02:45:02.166Z,9.73
2019-06-07T02:46:23.962Z,9.76
2019-06-07T02:47:02.217Z,9.79
2019-06-07T02:48:02.145Z,9.78
2019-06-07T02:49:02.147Z,9.79
2019-06-07T02:50:02.148Z,9.79
2019-06-07T02:51:02.214Z,9.79
2019-06-07T02:52:02.158Z,9.79
2019-06-07T02:53:02.203Z,9.80
2019-06-07T02:54:02.130Z,9.83
2019-06-07T02:55:02.160Z,9.82
2019-06-07T02:56:35.421Z,9.82
2019-06-07T02:57:02.106Z,9.83
2019-06-07T02:58:02.134Z,9.83
2019-06-07T02:59:02.109Z,9.86
2019-06-07T03:00:27.139Z,9.86
2019-06-07T03:01:08.584Z,9.84
2019-06-07T03:02:02.125Z,9.84
2019-06-07T03:03:02.146Z,9.82
2019-06-07T03:04:02.225Z,9.82
2019-06-07T03:05:02.208Z,9.83
2019-06-07T03:06:02.141Z,9.83
2019-06-07T03:07:02.141Z,9.83
2019-06-07T03:08:02.210Z,9.83
2019-06-07T03:09:02.207Z,9.82
2019-06-07T03:10:02.152Z,9.83
2019-06-07T03:11:02.246Z,9.82
2019-06-07T03:12:02.250Z,9.82
2019-06-07T03:13:02.179Z,9.83
2019-06-07T03:14:02.159Z,9.82
2019-06-07T03:15:02.231Z,9.80
2019-06-07T03:16:02.205Z,9.82
2019-06-07T03:17:02.169Z,9.80
2019-06-07T03:18:02.157Z,9.80
2019-06-07T03:19:02.139Z,9.82
2019-06-07T03:20:02.327Z,9.83
2019-06-07T03:21:05.418Z,9.83
2019-06-07T03:22:02.161Z,9.83
2019-06-07T03:23:02.147Z,9.84
2019-06-07T03:24:02.306Z,9.82
2019-06-07T03:25:02.180Z,9.82
2019-06-07T03:26:02.248Z,9.79
2019-06-07T03:28:02.240Z,9.78
2019-06-07T03:29:02.248Z,9.76
2019-06-07T03:30:34.963Z,9.79
2019-06-07T03:31:03.282Z,9.80
2019-06-07T03:32:02.188Z,9.80
2019-06-07T03:33:02.253Z,9.83
2019-06-07T03:34:02.283Z,9.86
2019-06-07T03:35:02.241Z,9.86
2019-06-07T03:36:22.824Z,9.86
2019-06-07T03:37:02.247Z,9.84
2019-06-07T03:38:02.353Z,9.83
2019-06-07T03:39:02.172Z,9.83
2019-06-07T03:40:02.244Z,9.82
2019-06-07T03:41:02.200Z,9.78
2019-06-07T03:42:06.597Z,9.79
2019-06-07T03:43:02.235Z,9.76
2019-06-07T03:44:02.246Z,9.78
2019-06-07T03:45:02.197Z,9.79
2019-06-07T03:46:02.235Z,9.79
2019-06-07T03:47:02.163Z,9.82
2019-06-07T03:48:02.237Z,9.80
2019-06-07T03:49:02.517Z,9.82
2019-06-07T03:50:02.153Z,9.82
2019-06-07T03:51:04.891Z,9.83
2019-06-07T03:52:02.240Z,9.83
2019-06-07T03:53:02.291Z,9.84
2019-06-07T03:54:02.244Z,9.86
2019-06-07T03:55:02.165Z,9.87
2019-06-07T03:56:02.291Z,9.86
2019-06-07T03:57:02.169Z,9.84
2019-06-07T03:59:02.171Z,9.76
2019-06-07T04:00:02.249Z,9.66
2019-06-07T04:01:02.313Z,9.65
2019-06-07T04:02:02.181Z,9.68
2019-06-07T04:03:02.250Z,9.68
2019-06-07T04:04:02.242Z,9.69
2019-06-07T04:05:02.181Z,9.71
2019-06-07T04:06:02.156Z,9.69
2019-06-07T04:07:02.159Z,9.72
2019-06-07T04:08:02.197Z,9.75
2019-06-07T04:09:02.220Z,9.76
2019-06-07T04:10:02.253Z,9.79
2019-06-07T04:11:02.268Z,9.78
2019-06-07T04:12:02.172Z,9.80
2019-06-07T04:13:02.271Z,9.79
2019-06-07T04:14:02.263Z,9.79
2019-06-07T04:15:02.201Z,9.79
2019-06-07T04:16:02.209Z,9.83
2019-06-07T04:17:02.276Z,9.83
2019-06-07T04:18:04.073Z,9.86
2019-06-07T04:19:02.255Z,9.87
2019-06-07T04:20:02.391Z,9.83
2019-06-07T04:21:02.233Z,9.83
2019-06-07T04:22:02.271Z,9.82
2019-06-07T04:23:02.187Z,9.83
2019-06-07T04:24:02.201Z,9.86
2019-06-07T04:25:02.204Z,9.89
2019-06-07T04:26:02.204Z,9.91
2019-06-07T04:27:02.263Z,9.87
2019-06-07T04:28:02.219Z,9.87
2019-06-07T04:29:32.271Z,9.91
2019-06-07T04:30:07.867Z,9.95
2019-06-07T04:31:02.326Z,9.98
2019-06-07T04:32:04.341Z,9.98
2019-06-07T04:33:02.204Z,9.97
2019-06-07T04:34:02.201Z,9.97
2019-06-07T04:35:02.271Z,10.00
2019-06-07T04:36:02.204Z,10.04
2019-06-07T04:37:02.282Z,10.08
2019-06-07T04:38:02.274Z,10.08
2019-06-07T04:39:02.211Z,10.11
2019-06-07T04:40:02.200Z,10.08
2019-06-07T04:41:02.210Z,10.08
2019-06-07T04:42:02.276Z,10.05
2019-06-07T04:43:02.210Z,10.05
2019-06-07T04:44:02.281Z,10.08
2019-06-07T04:45:02.213Z,10.11
2019-06-07T04:46:02.282Z,10.13
2019-06-07T04:47:02.212Z,10.08
2019-06-07T04:48:02.287Z,10.08
2019-06-07T04:49:02.222Z,10.09
2019-06-07T04:50:02.286Z,10.08
2019-06-07T04:51:02.288Z,10.09
2019-06-07T04:52:02.214Z,10.14
2019-06-07T04:53:02.226Z,10.14
2019-06-07T04:54:02.303Z,10.16
2019-06-07T04:55:02.228Z,10.20
2019-06-07T04:56:02.238Z,10.20
2019-06-07T04:57:02.230Z,10.20
2019-06-07T04:58:02.242Z,10.21
2019-06-07T04:59:02.300Z,10.23
2019-06-07T05:00:12.642Z,10.23
2019-06-07T05:01:03.743Z,10.21
2019-06-07T05:02:02.246Z,10.24
2019-06-07T05:03:02.238Z,10.28
2019-06-07T05:04:02.393Z,10.34
2019-06-07T05:05:02.306Z,10.36
2019-06-07T05:06:02.269Z,10.41
2019-06-07T05:07:02.304Z,10.45
2019-06-07T05:08:07.500Z,10.47
2019-06-07T05:09:02.307Z,10.50
2019-06-07T05:10:02.502Z,10.52
2019-06-07T05:11:02.358Z,10.52
2019-06-07T05:12:02.276Z,10.45
2019-06-07T05:13:02.222Z,10.43
2019-06-07T05:14:02.233Z,10.47
2019-06-07T05:15:02.352Z,10.53
2019-06-07T05:16:02.255Z,10.57
2019-06-07T05:17:02.304Z,10.56
2019-06-07T05:18:02.236Z,10.53
2019-06-07T05:19:02.309Z,10.58
2019-06-07T05:20:02.243Z,10.61
2019-06-07T05:21:02.325Z,10.65
2019-06-07T05:22:04.776Z,10.65
2019-06-07T05:23:02.237Z,10.56
2019-06-07T05:24:09.760Z,10.54
2019-06-07T05:25:02.237Z,10.49
2019-06-07T05:26:02.310Z,10.52
2019-06-07T05:27:02.313Z,10.57
2019-06-07T05:28:02.239Z,10.61
2019-06-07T05:29:02.240Z,10.68
2019-06-07T05:30:49.957Z,10.79
2019-06-07T05:31:05.636Z,10.81
2019-06-07T05:32:02.239Z,10.74
2019-06-07T05:33:02.334Z,10.79
2019-06-07T05:34:02.255Z,10.88
2019-06-07T05:35:02.275Z,10.91
2019-06-07T05:36:02.331Z,11.00
2019-06-07T05:37:11.786Z,10.98
2019-06-07T05:38:02.332Z,11.00
2019-06-07T05:39:02.347Z,11.06
2019-06-07T05:40:02.265Z,11.06
2019-06-07T05:41:02.262Z,11.09
2019-06-07T05:42:02.304Z,11.11
2019-06-07T05:43:02.279Z,11.02
2019-06-07T05:44:12.540Z,11.05
2019-06-07T05:45:02.329Z,10.93
2019-06-07T05:46:02.375Z,10.97
2019-06-07T05:47:02.262Z,11.06
2019-06-07T05:48:02.745Z,11.13
2019-06-07T05:49:02.265Z,11.27
2019-06-07T05:50:02.940Z,11.35
2019-06-07T05:51:02.332Z,11.27
2019-06-07T05:52:02.329Z,11.35
2019-06-07T05:53:02.278Z,11.36
2019-06-07T05:54:02.361Z,11.40
2019-06-07T05:55:02.326Z,11.31
2019-06-07T05:56:02.288Z,11.32
2019-06-07T05:57:02.272Z,11.36
2019-06-07T05:58:02.355Z,11.38
2019-06-07T05:59:02.326Z,11.45
2019-06-07T06:00:02.373Z,11.43
2019-06-07T06:01:41.651Z,11.40
2019-06-07T06:02:21.247Z,11.42
2019-06-07T06:03:05.589Z,11.40
2019-06-07T06:04:02.199Z,11.54
2019-06-07T06:05:02.795Z,11.50
2019-06-07T06:06:02.314Z,11.57
2019-06-07T06:07:02.299Z,11.58
2019-06-07T06:08:02.241Z,11.43
2019-06-07T06:09:13.285Z,11.32
2019-06-07T06:10:02.293Z,11.35
2019-06-07T06:11:02.201Z,11.32
2019-06-07T06:12:02.646Z,11.29
2019-06-07T06:13:02.359Z,11.35
2019-06-07T06:14:07.958Z,11.43
2019-06-07T06:15:02.288Z,11.46
2019-06-07T06:16:02.628Z,11.49
2019-06-07T06:17:02.292Z,11.60
2019-06-07T06:18:02.366Z,11.73
2019-06-07T06:19:02.291Z,11.73
2019-06-07T06:20:02.388Z,11.71
2019-06-07T06:21:16.323Z,11.78
2019-06-07T06:22:02.373Z,11.83
2019-06-07T06:23:02.285Z,11.91
2019-06-07T06:24:02.351Z,11.95
2019-06-07T06:25:30.675Z,12.06
2019-06-07T06:26:02.354Z,12.20
2019-06-07T06:27:18.972Z,12.28
2019-06-07T06:28:11.707Z,12.29
2019-06-07T06:29:02.306Z,12.35
2019-06-07T06:30:02.311Z,12.40
2019-06-07T06:31:02.251Z,12.53
2019-06-07T06:32:40.564Z,12.60
2019-06-07T06:33:02.356Z,12.46
2019-06-07T06:34:02.377Z,12.39
2019-06-07T06:35:02.356Z,12.50
2019-06-07T06:36:02.334Z,12.62
2019-06-07T06:37:02.374Z,12.65
2019-06-07T06:38:02.377Z,12.68
2019-06-07T06:39:02.268Z,12.80
2019-06-07T06:40:02.308Z,12.86
2019-06-07T06:41:15.445Z,12.91
2019-06-07T06:42:03.931Z,13.09
2019-06-07T06:43:02.354Z,13.16
2019-06-07T06:44:02.294Z,13.32
2019-06-07T06:45:02.389Z,13.29
2019-06-07T06:46:02.275Z,13.28
2019-06-07T06:47:02.312Z,13.29
2019-06-07T06:48:02.257Z,13.29
2019-06-07T06:49:02.374Z,13.39
2019-06-07T06:50:02.339Z,13.50
2019-06-07T06:51:02.339Z,13.66
2019-06-07T06:52:02.262Z,13.79
2019-06-07T06:53:02.318Z,13.99
2019-06-07T06:54:02.383Z,14.18
2019-06-07T06:55:02.314Z,14.31
2019-06-07T06:56:02.259Z,14.55
2019-06-07T06:57:19.096Z,14.69
2019-06-07T06:58:02.380Z,14.66
2019-06-07T07:00:02.307Z,15.07
2019-06-07T07:01:06.863Z,15.31
2019-06-07T07:02:02.314Z,15.19
2019-06-07T07:03:47.689Z,15.14
2019-06-07T07:04:12.171Z,15.31
2019-06-07T07:05:02.407Z,15.29
2019-06-07T07:06:24.652Z,15.10
2019-06-07T07:07:02.331Z,15.13
2019-06-07T07:08:02.450Z,15.19
2019-06-07T07:09:02.415Z,15.22
2019-06-07T07:10:03.141Z,15.44
2019-06-07T07:11:02.411Z,15.59
2019-06-07T07:12:12.300Z,15.83
2019-06-07T07:13:02.322Z,15.83
2019-06-07T07:14:02.323Z,15.76
2019-06-07T07:15:02.324Z,15.66
2019-06-07T07:16:02.394Z,15.82
2019-06-07T07:17:02.335Z,15.86
2019-06-07T07:18:08.502Z,16.09
2019-06-07T07:19:02.403Z,16.09
2019-06-07T07:20:02.325Z,16.13
2019-06-07T07:21:02.329Z,16.09
2019-06-07T07:22:02.400Z,16.05
2019-06-07T07:23:02.339Z,16.20
2019-06-07T07:24:20.403Z,16.38
2019-06-07T07:25:02.412Z,16.47
2019-06-07T07:26:02.420Z,16.43
2019-06-07T07:27:02.345Z,16.31
2019-06-07T07:28:02.410Z,16.33
2019-06-07T07:29:02.446Z,16.35
2019-06-07T07:30:35.577Z,16.35
2019-06-07T07:31:02.419Z,16.44
2019-06-07T07:32:02.345Z,16.70
2019-06-07T07:33:03.111Z,16.99
2019-06-07T07:35:02.346Z,17.13
2019-06-07T07:37:02.410Z,17.32
2019-06-07T07:38:02.411Z,17.31
2019-06-07T07:39:05.040Z,17.32
2019-06-07T07:40:48.071Z,17.39
2019-06-07T07:41:13.943Z,17.42
2019-06-07T07:42:20.175Z,17.40
2019-06-07T07:43:02.354Z,17.46
2019-06-07T07:44:06.887Z,17.62
2019-06-07T07:45:02.400Z,17.75
2019-06-07T07:46:06.064Z,17.79
2019-06-07T07:47:02.426Z,17.83
2019-06-07T07:48:15.589Z,17.77
2019-06-07T07:49:02.393Z,17.96
2019-06-07T07:50:02.412Z,18.10
2019-06-07T07:51:03.414Z,18.18
2019-06-07T07:52:02.448Z,18.21
2019-06-07T07:53:02.423Z,18.29
2019-06-07T07:54:10.584Z,18.24
2019-06-07T07:55:02.336Z,18.18
2019-06-07T07:56:02.790Z,18.17
2019-06-07T07:57:02.424Z,18.24
2019-06-07T07:58:02.360Z,18.43
2019-06-07T07:59:02.995Z,18.52
2019-06-07T08:00:48.124Z,18.73
2019-06-07T08:01:10.218Z,18.90
2019-06-07T08:02:02.428Z,18.90
2019-06-07T08:03:04.497Z,19.01
2019-06-07T08:04:02.338Z,19.25
2019-06-07T08:05:28.769Z,19.40
2019-06-07T08:06:02.381Z,19.54
2019-06-07T08:07:02.368Z,19.73
2019-06-07T08:08:05.355Z,19.84
2019-06-07T08:09:02.381Z,19.80
2019-06-07T08:10:04.135Z,19.66
2019-06-07T08:11:02.621Z,19.32
2019-06-07T08:12:02.775Z,19.47
2019-06-07T08:13:23.894Z,19.70
2019-06-07T08:14:02.376Z,19.70
2019-06-07T08:15:03.524Z,19.62
2019-06-07T08:16:10.642Z,19.43
2019-06-07T08:17:02.375Z,19.49
2019-06-07T08:18:04.351Z,19.61
2019-06-07T08:19:04.346Z,19.66
2019-06-07T08:20:03.033Z,19.83
2019-06-07T08:21:21.612Z,19.85
2019-06-07T08:22:02.456Z,19.94
2019-06-07T08:23:02.457Z,19.84
2019-06-07T08:24:05.209Z,19.81
2019-06-07T08:25:04.328Z,19.32
2019-06-07T08:26:02.390Z,19.31
2019-06-07T08:27:24.727Z,19.19
2019-06-07T08:28:02.414Z,19.08
2019-06-07T08:29:03.156Z,19.01
2019-06-07T08:30:26.051Z,19.12
2019-06-07T08:31:06.854Z,19.17
2019-06-07T08:32:02.462Z,19.36
2019-06-07T08:33:24.742Z,19.55
2019-06-07T08:34:02.458Z,19.62
2019-06-07T08:35:06.430Z,19.61
2019-06-07T08:36:14.182Z,19.66
2019-06-07T08:37:02.492Z,19.68
2019-06-07T08:38:46.541Z,19.61
2019-06-07T08:39:07.238Z,19.43
2019-06-07T08:40:02.400Z,19.55
2019-06-07T08:41:11.399Z,19.50
2019-06-07T08:42:15.443Z,19.19
2019-06-07T08:43:18.343Z,19.17
2019-06-07T08:44:22.234Z,19.17
2019-06-07T08:45:05.453Z,19.13
2019-06-07T08:46:07.278Z,19.09
2019-06-07T08:47:19.265Z,19.21
2019-06-07T08:48:09.449Z,19.17
2019-06-07T08:49:04.550Z,18.97
2019-06-07T08:50:07.481Z,18.95
2019-06-07T08:51:08.150Z,18.97
2019-06-07T08:52:07.943Z,18.99
2019-06-07T08:53:11.440Z,18.94
2019-06-07T08:54:21.106Z,18.90
2019-06-07T08:55:04.912Z,18.98
2019-06-07T08:56:09.146Z,19.02
2019-06-07T08:57:19.694Z,19.13
2019-06-07T08:58:08.207Z,19.29
2019-06-07T08:59:10.799Z,19.43
2019-06-07T09:00:07.102Z,19.53
2019-06-07T09:01:07.788Z,19.91
2019-06-07T09:02:14.567Z,20.31
2019-06-07T09:03:05.063Z,20.46
2019-06-07T09:04:07.680Z,20.66
2019-06-07T09:05:11.100Z,20.77
2019-06-07T09:06:16.443Z,20.83
2019-06-07T09:07:14.693Z,21.18
2019-06-07T09:08:25.993Z,21.27
2019-06-07T09:09:05.186Z,21.47
2019-06-07T09:10:09.520Z,21.71
2019-06-07T09:11:10.162Z,21.82
2019-06-07T09:12:08.130Z,21.83
2019-06-07T09:13:09.937Z,21.73
2019-06-07T09:14:08.675Z,21.67
2019-06-07T09:15:14.964Z,21.80
2019-06-07T09:16:06.771Z,21.82
2019-06-07T09:17:11.032Z,21.75
2019-06-07T09:18:40.028Z,21.40
2019-06-07T09:19:06.703Z,21.24
2019-06-07T09:20:09.406Z,21.40
2019-06-07T09:21:07.681Z,21.47
2019-06-07T09:22:08.246Z,21.40
2019-06-07T09:23:15.484Z,21.71
2019-06-07T09:24:10.394Z,21.82
2019-06-07T09:25:10.536Z,21.78
2019-06-07T09:26:15.384Z,21.69
2019-06-07T09:27:07.184Z,21.64
2019-06-07T09:28:10.143Z,21.58
2019-06-07T09:29:07.065Z,21.56
2019-06-07T09:30:08.830Z,21.75
2019-06-07T09:31:06.943Z,21.90
2019-06-07T09:32:05.950Z,22.12
2019-06-07T09:33:05.739Z,22.23
2019-06-07T09:34:07.909Z,22.34
2019-06-07T09:35:08.119Z,22.42
2019-06-07T09:36:09.205Z,22.46
2019-06-07T09:37:13.041Z,22.12
2019-06-07T09:38:11.048Z,21.83
2019-06-07T09:39:07.379Z,21.89
2019-06-07T09:40:15.423Z,21.79
2019-06-07T09:41:05.631Z,21.89
2019-06-07T09:42:08.386Z,22.02
2019-06-07T09:43:47.943Z,22.19
2019-06-07T09:44:20.419Z,22.52
2019-06-07T09:45:06.545Z,22.43
2019-06-07T09:46:09.693Z,22.63
2019-06-07T09:47:22.219Z,22.57
2019-06-07T09:48:11.605Z,22.56
2019-06-07T09:49:18.739Z,22.71
2019-06-07T09:50:05.967Z,23.00
2019-06-07T09:51:09.737Z,22.71
2019-06-07T09:52:07.315Z,22.53
2019-06-07T09:53:10.468Z,22.54
2019-06-07T09:54:06.925Z,22.70
2019-06-07T09:55:09.103Z,22.84
2019-06-07T09:56:05.787Z,22.95
2019-06-07T09:57:05.326Z,23.09
2019-06-07T09:58:47.802Z,23.08
2019-06-07T09:59:03.713Z,23.08
2019-06-07T10:00:33.558Z,22.87
2019-06-07T10:01:06.183Z,23.12
2019-06-07T10:02:03.632Z,23.17
2019-06-07T10:03:15.842Z,23.17
2019-06-07T10:04:08.246Z,22.75
2019-06-07T10:05:05.192Z,22.64
2019-06-07T10:06:07.635Z,22.42
2019-06-07T10:07:10.584Z,22.14
2019-06-07T10:08:22.553Z,22.19
2019-06-07T10:11:02.631Z,22.16
2019-06-07T10:12:02.545Z,22.04
2019-06-07T10:13:04.073Z,22.02
2019-06-07T10:14:02.504Z,22.08
2019-06-07T10:15:02.951Z,22.14
2019-06-07T10:16:02.758Z,22.28
2019-06-07T10:17:03.176Z,22.50
2019-06-07T10:18:02.843Z,22.79
2019-06-07T10:19:03.690Z,22.86
2019-06-07T10:20:03.902Z,22.82
2019-06-07T10:21:03.784Z,22.86
2019-06-07T10:22:03.326Z,22.82
2019-06-07T10:23:03.678Z,22.90
2019-06-07T10:24:03.479Z,22.86
2019-06-07T10:25:04.262Z,23.02
2019-06-07T10:26:03.936Z,23.16
2019-06-07T10:27:03.896Z,23.12
2019-06-07T10:28:03.714Z,23.27
2019-06-07T10:29:04.903Z,23.27
2019-06-07T10:30:03.969Z,23.44
2019-06-07T10:31:02.484Z,23.49
2019-06-07T10:32:02.642Z,23.50
2019-06-07T10:33:02.493Z,23.54
2019-06-07T10:34:02.550Z,23.53
2019-06-07T10:35:03.268Z,23.75
2019-06-07T10:36:02.549Z,23.82
2019-06-07T10:37:03.279Z,24.01
2019-06-07T10:38:02.561Z,23.75
2019-06-07T10:39:02.903Z,23.83
2019-06-07T10:40:02.933Z,23.85
2019-06-07T10:41:02.883Z,23.45
2019-06-07T10:42:04.046Z,23.38
2019-06-07T10:43:02.990Z,23.23
2019-06-07T10:44:03.325Z,23.23
2019-06-07T10:45:04.438Z,23.39
2019-06-07T10:46:03.630Z,23.54
2019-06-07T10:47:03.873Z,23.72
2019-06-07T10:48:03.595Z,23.82
2019-06-07T10:49:03.695Z,23.83
2019-06-07T10:50:03.766Z,23.65
2019-06-07T10:51:02.512Z,23.69
2019-06-07T10:52:04.812Z,23.74
2019-06-07T10:53:02.495Z,23.85
2019-06-07T10:54:11.110Z,23.86
2019-06-07T10:55:02.598Z,24.00
2019-06-07T10:56:02.925Z,24.09
2019-06-07T10:57:02.952Z,24.27
2019-06-07T10:58:02.823Z,24.33
2019-06-07T10:59:03.159Z,23.96
2019-06-07T11:00:03.481Z,23.57
2019-06-07T11:01:03.370Z,23.37
2019-06-07T11:02:03.434Z,23.37
2019-06-07T11:03:03.620Z,23.34
2019-06-07T11:04:03.385Z,23.44
2019-06-07T11:05:03.693Z,23.61
2019-06-07T11:06:03.677Z,23.47
2019-06-07T11:07:04.380Z,23.61
2019-06-07T11:08:03.812Z,23.78
2019-06-07T11:09:03.725Z,23.93
2019-06-07T11:10:07.427Z,24.02
2019-06-07T11:11:03.806Z,24.22
2019-06-07T11:12:02.578Z,24.45
2019-06-07T11:13:02.520Z,24.27
2019-06-07T11:14:02.515Z,24.18
2019-06-07T11:15:02.583Z,24.14
2019-06-07T11:16:02.517Z,24.27
2019-06-07T11:17:02.596Z,24.33
2019-06-07T11:18:02.585Z,24.33
2019-06-07T11:19:02.560Z,24.31
2019-06-07T11:20:02.597Z,24.40
2019-06-07T11:21:02.592Z,24.26
2019-06-07T11:22:02.591Z,24.29
2019-06-07T11:23:02.590Z,24.44
2019-06-07T11:24:02.574Z,24.20
2019-06-07T11:25:02.997Z,24.22
2019-06-07T11:26:02.582Z,24.31
2019-06-07T11:27:02.571Z,24.20
2019-06-07T11:28:02.514Z,24.27
2019-06-07T11:29:02.578Z,24.44
2019-06-07T11:30:02.508Z,24.34
2019-06-07T11:31:02.494Z,24.09
2019-06-07T11:32:02.586Z,24.18
2019-06-07T11:33:02.550Z,24.31
2019-06-07T11:34:02.558Z,24.16
2019-06-07T11:35:02.514Z,24.15
2019-06-07T11:36:02.500Z,23.90
2019-06-07T11:37:02.545Z,23.93
2019-06-07T11:38:02.538Z,24.14
2019-06-07T11:39:02.497Z,24.25
2019-06-07T11:40:02.499Z,24.36
2019-06-07T11:41:02.593Z,24.19
2019-06-07T11:42:02.528Z,24.37
2019-06-07T11:43:02.467Z,24.34
2019-06-07T11:44:02.520Z,24.54
2019-06-07T11:45:02.525Z,24.66
2019-06-07T11:46:02.534Z,24.77
2019-06-07T11:47:02.589Z,24.79
2019-06-07T11:48:02.549Z,24.85
2019-06-07T11:49:02.523Z,25.00
2019-06-07T11:50:02.599Z,25.06
2019-06-07T11:51:02.593Z,24.78
2019-06-07T11:52:02.527Z,24.66
2019-06-07T11:53:02.519Z,24.51
2019-06-07T11:54:02.594Z,24.48
2019-06-07T11:55:02.553Z,24.63
2019-06-07T11:56:02.604Z,24.31
2019-06-07T11:57:02.508Z,24.49
2019-06-07T11:58:02.492Z,24.67
2019-06-07T11:59:02.487Z,24.72
2019-06-07T12:00:02.606Z,24.85
2019-06-07T12:01:02.549Z,25.01
2019-06-07T12:02:02.545Z,25.12
2019-06-07T12:03:02.495Z,25.12
2019-06-07T12:04:02.607Z,24.67
2019-06-07T12:05:02.603Z,24.29
2019-06-07T12:06:02.518Z,24.19
2019-06-07T12:07:02.700Z,23.83
2019-06-07T12:08:02.482Z,23.58
2019-06-07T12:09:02.544Z,23.61
2019-06-07T12:10:02.539Z,23.56
2019-06-07T12:11:02.609Z,23.71
2019-06-07T12:12:02.491Z,23.82
2019-06-07T12:13:02.516Z,23.96
2019-06-07T12:14:02.573Z,23.74
2019-06-07T12:15:02.558Z,23.58
2019-06-07T12:16:02.563Z,23.27
2019-06-07T12:17:02.636Z,23.31
2019-06-07T12:18:02.632Z,23.28
2019-06-07T12:19:02.572Z,23.22
2019-06-07T12:20:03.007Z,23.22
2019-06-07T12:21:02.654Z,23.27
2019-06-07T12:22:02.634Z,23.20
2019-06-07T12:23:02.707Z,23.19
2019-06-07T12:24:02.690Z,23.09
2019-06-07T12:25:05.802Z,22.98
2019-06-07T12:26:02.731Z,23.13
2019-06-07T12:27:02.663Z,23.42
2019-06-07T12:28:02.655Z,23.49
2019-06-07T12:29:02.574Z,23.58
2019-06-07T12:30:09.855Z,23.83
2019-06-07T12:31:02.639Z,23.76
2019-06-07T12:32:02.641Z,23.57
2019-06-07T12:33:02.661Z,23.42
2019-06-07T12:34:02.575Z,23.34
2019-06-07T12:35:02.579Z,23.31
2019-06-07T12:36:02.513Z,23.34
2019-06-07T12:37:02.560Z,23.45
2019-06-07T12:38:02.576Z,23.45
2019-06-07T12:39:02.541Z,23.41
2019-06-07T12:40:02.629Z,23.27
2019-06-07T12:41:02.603Z,23.35
2019-06-07T12:42:02.599Z,23.38
2019-06-07T12:43:02.517Z,23.41
2019-06-07T12:44:02.699Z,23.64
2019-06-07T12:45:02.577Z,23.87
2019-06-07T12:46:02.609Z,24.12
2019-06-07T12:47:02.523Z,24.18
2019-06-07T12:48:02.630Z,24.27
2019-06-07T12:49:02.634Z,24.25
2019-06-07T12:50:02.656Z,24.30
2019-06-07T12:51:02.643Z,24.44
2019-06-07T12:52:02.530Z,24.48
2019-06-07T12:53:02.517Z,24.57
2019-06-07T12:54:02.590Z,24.74
2019-06-07T12:55:02.663Z,24.94
2019-06-07T12:56:02.664Z,24.98
2019-06-07T12:57:02.590Z,24.98
2019-06-07T12:58:02.563Z,24.95
2019-06-07T12:59:02.712Z,24.95
2019-06-07T13:00:03.015Z,25.02
2019-06-07T13:01:02.661Z,25.19
2019-06-07T13:02:02.789Z,25.08
2019-06-07T13:03:02.630Z,25.12
2019-06-07T13:04:02.553Z,25.24
2019-06-07T13:05:04.662Z,25.27
2019-06-07T13:06:02.678Z,25.33
2019-06-07T13:07:02.614Z,25.40
2019-06-07T13:08:02.638Z,25.30
2019-06-07T13:09:02.528Z,25.19